This is the latest recevied weather packets stored in our database for station/object KE9DBJ-13. If no packets are shown the sender has not sent any weather packets the latest 10 day(s).
| Time | Temp. | Humidity | Pressure | Rain* | Wind** | Luminosity | Snow |
|---|---|---|---|---|---|---|---|
| 1777555202 | 8.33° C | 70% | 1017.3 hPa | 0 mm | - | - | - |
| 1777554602 | 8.33° C | 73% | 1017.2 hPa | 0 mm | - | - | - |
| 1777554002 | 7.78° C | 76% | 1016.9 hPa | 0 mm | - | - | - |
| 1777553402 | 7.78° C | 76% | 1016.7 hPa | 0 mm | - | - | - |
| 1777552803 | 7.22° C | 77% | 1016.5 hPa | 0 mm | - | - | - |
| 1777552203 | 7.22° C | 78% | 1016.6 hPa | 0 mm | - | - | - |
| 1777551603 | 6.67° C | 81% | 1016.3 hPa | 0 mm | - | - | - |
| 1777551003 | 6.67° C | 81% | 1016.3 hPa | 0 mm | - | - | - |
| 1777550403 | 6.11° C | 85% | 1016.3 hPa | 0 mm | - | - | - |
| 1777549803 | 6.11° C | 84% | 1016 hPa | 0 mm | - | - | - |
| 1777549203 | 5.56° C | 86% | 1015.9 hPa | 0 mm | - | - | - |
| 1777548603 | 5.56° C | 86% | 1015.9 hPa | 0 mm | - | - | - |
| 1777548003 | 5° C | 89% | 1015.8 hPa | 0 mm | - | - | - |
| 1777547403 | 4.44° C | 90% | 1015.7 hPa | 0 mm | - | - | - |
| 1777546803 | 4.44° C | 90% | 1015.5 hPa | 0 mm | - | - | - |
| 1777546202 | 4.44° C | 90% | 1015.4 hPa | 0 mm | - | - | - |
| 1777545602 | 5° C | 89% | 1015.4 hPa | 0 mm | - | - | - |
| 1777545002 | 5° C | 89% | 1015.4 hPa | 0 mm | - | - | - |
| 1777544402 | 5° C | 88% | 1015.4 hPa | 0 mm | - | - | - |
| 1777543802 | 5° C | 88% | 1015.4 hPa | 0 mm | - | - | - |
| 1777543202 | 5° C | 90% | 1015.3 hPa | 0 mm | - | - | - |
| 1777542602 | 5° C | 90% | 1015.3 hPa | 0 mm | - | - | - |
| 1777542002 | 5° C | 88% | 1015.3 hPa | 0 mm | - | - | - |
| 1777541402 | 5.56° C | 87% | 1015.2 hPa | 0 mm | - | - | - |
| 1777540802 | 5.56° C | 87% | 1015.2 hPa | 0 mm | - | - | - |
* Rain latest hour (hover to see other rain measurements)
** Current wind speed in m/s (hover to see current wind gust speed)